Time;durP1;ratioP1;P1;durP2;ratioP2;P2;SDS_P1;SDS_P2;PMS_P1;PMS_P2;Temp;Humidity;BMP_temperature;BMP_pressure;BME280_temperature;BME280_humidity;BME280_pressure;Samples;Min_cycle;Max_cycle;Signal;HPM_P1;HPM_P2
2022/08/17 00:01:44;;;;;;;3.22;3.00;;;;;;;;;;5141840;27;20202;-65
2022/08/17 00:04:12;;;;;;;3.38;3.08;;;;;;;;;;5141508;27;20202;-65
2022/08/17 00:06:39;;;;;;;3.33;3.03;;;;;;;;;;5126380;27;20207;-65
2022/08/17 00:09:07;;;;;;;3.08;2.78;;;;;;;;;;5120547;28;20203;-65
2022/08/17 00:11:36;;;;;;;3.85;3.00;;;;;;;;;;5120910;28;20248;-66
2022/08/17 00:14:05;;;;;;;3.30;3.00;;;;;;;;;;5120768;28;20211;-65
2022/08/17 00:16:33;;;;;;;3.40;3.05;;;;;;;;;;5133475;27;20198;-66
2022/08/17 00:19:03;;;;;;;3.20;2.90;;;;;;;;;;5141372;27;20210;-66
2022/08/17 00:21:31;;;;;;;3.15;2.92;;;;;;;;;;5141753;27;20221;-66
2022/08/17 00:23:58;;;;;;;3.40;3.10;;;;;;;;;;5140934;27;20202;-65
2022/08/17 00:26:27;;;;;;;5.32;3.28;;;;;;;;;;5128367;27;20205;-65
2022/08/17 00:28:54;;;;;;;5.60;3.00;;;;;;;;;;5120320;28;20242;-66
2022/08/17 00:31:22;;;;;;;3.25;3.00;;;;;;;;;;5120591;28;20203;-66
2022/08/17 00:33:50;;;;;;;3.22;2.92;;;;;;;;;;5120115;28;20654;-65
2022/08/17 00:36:18;;;;;;;3.20;2.90;;;;;;;;;;5121602;27;20587;-65
2022/08/17 00:38:46;;;;;;;3.63;2.97;;;;;;;;;;5120802;28;20214;-66
2022/08/17 00:41:16;;;;;;;3.20;2.90;;;;;;;;;;5120548;28;20535;-65
2022/08/17 00:43:44;;;;;;;2.95;2.75;;;;;;;;;;5120604;28;20210;-65
2022/08/17 00:46:13;;;;;;;2.90;2.70;;;;;;;;;;5129947;27;20267;-65
2022/08/17 00:48:40;;;;;;;3.17;2.88;;;;;;;;;;5140839;27;20689;-65
2022/08/17 00:51:10;;;;;;;3.00;2.80;;;;;;;;;;5140989;27;20271;-65
2022/08/17 00:53:40;;;;;;;3.05;2.85;;;;;;;;;;5140623;27;20261;-65
2022/08/17 00:56:09;;;;;;;3.00;2.80;;;;;;;;;;5140462;27;20305;-65
2022/08/17 00:58:37;;;;;;;3.10;2.88;;;;;;;;;;5130899;27;20570;-65
2022/08/17 01:01:05;;;;;;;4.15;3.20;;;;;;;;;;5140701;27;20232;-65
2022/08/17 01:03:32;;;;;;;3.22;2.97;;;;;;;;;;5140634;27;20293;-65
2022/08/17 01:06:02;;;;;;;2.97;2.75;;;;;;;;;;5140310;27;20266;-65
2022/08/17 01:08:30;;;;;;;3.00;2.80;;;;;;;;;;5140606;27;20202;-66
2022/08/17 01:11:01;;;;;;;2.78;2.58;;;;;;;;;;5134109;27;20184;-66
2022/08/17 01:13:29;;;;;;;3.38;3.08;;;;;;;;;;5119881;28;20301;-65
2022/08/17 01:15:58;;;;;;;3.28;2.97;;;;;;;;;;5119567;28;20215;-66
2022/08/17 01:18:26;;;;;;;3.72;3.17;;;;;;;;;;5119477;28;20238;-66
2022/08/17 01:20:56;;;;;;;2.80;2.60;;;;;;;;;;5119469;28;20227;-65
2022/08/17 01:23:27;;;;;;;3.13;2.92;;;;;;;;;;5119531;28;20571;-65
2022/08/17 01:25:56;;;;;;;3.40;3.10;;;;;;;;;;5123908;27;20578;-65
2022/08/17 01:28:25;;;;;;;3.58;3.05;;;;;;;;;;5139791;27;20230;-65
2022/08/17 01:30:54;;;;;;;3.08;2.85;;;;;;;;;;5137775;27;20281;-65
2022/08/17 01:33:22;;;;;;;3.20;2.95;;;;;;;;;;5139717;27;20214;-65
2022/08/17 01:35:51;;;;;;;3.67;3.25;;;;;;;;;;5139808;27;20556;-65
2022/08/17 01:38:19;;;;;;;3.00;2.80;;;;;;;;;;5139790;27;20305;-65
2022/08/17 01:40:52;;;;;;;4.85;3.22;;;;;;;;;;5122351;27;20265;-65
2022/08/17 01:43:22;;;;;;;3.05;2.80;;;;;;;;;;5119189;28;20213;-65
2022/08/17 01:45:52;;;;;;;3.15;2.90;;;;;;;;;;5118813;28;20264;-65
2022/08/17 01:48:20;;;;;;;3.45;3.10;;;;;;;;;;5118651;28;20203;-65
2022/08/17 01:50:48;;;;;;;2.97;2.80;;;;;;;;;;5119375;28;20583;-65
2022/08/17 01:53:17;;;;;;;3.15;2.95;;;;;;;;;;5118990;28;20590;-66
2022/08/17 01:55:47;;;;;;;3.30;3.10;;;;;;;;;;5131304;27;20206;-65
2022/08/17 01:58:16;;;;;;;3.30;3.10;;;;;;;;;;5139171;27;20206;-65
2022/08/17 02:00:45;;;;;;;3.40;3.10;;;;;;;;;;5139431;27;20614;-66
2022/08/17 02:03:12;;;;;;;2.92;2.72;;;;;;;;;;5138959;27;20213;-66
2022/08/17 02:05:40;;;;;;;3.10;2.90;;;;;;;;;;5139747;27;20210;-65
2022/08/17 02:08:07;;;;;;;3.45;3.15;;;;;;;;;;5139769;27;20499;-65
2022/08/17 02:10:35;;;;;;;2.92;2.72;;;;;;;;;;5138920;27;20202;-65
2022/08/17 02:13:03;;;;;;;3.72;3.42;;;;;;;;;;5133771;27;20237;-65
2022/08/17 02:15:33;;;;;;;3.38;3.17;;;;;;;;;;5121154;27;20210;-64
2022/08/17 02:18:00;;;;;;;3.15;2.95;;;;;;;;;;5118741;28;20207;-66
2022/08/17 02:20:30;;;;;;;3.45;3.20;;;;;;;;;;5117958;28;20222;-66
2022/08/17 02:23:00;;;;;;;3.97;2.90;;;;;;;;;;5119311;28;20214;-66
2022/08/17 02:25:29;;;;;;;2.92;2.72;;;;;;;;;;5119264;28;20207;-66
2022/08/17 02:27:57;;;;;;;3.40;3.20;;;;;;;;;;5118647;28;20207;-65
2022/08/17 02:30:25;;;;;;;3.40;3.10;;;;;;;;;;5117211;28;20231;-65
2022/08/17 02:32:53;;;;;;;3.33;3.03;;;;;;;;;;5134303;28;20212;-65
2022/08/17 02:35:21;;;;;;;3.30;3.00;;;;;;;;;;5137612;28;20263;-65
2022/08/17 02:37:49;;;;;;;3.20;2.90;;;;;;;;;;5137462;28;20293;-65
2022/08/17 02:40:17;;;;;;;3.17;2.90;;;;;;;;;;5137685;28;20287;-65
2022/08/17 02:42:45;;;;;;;3.70;3.33;;;;;;;;;;5137494;28;20202;-65
2022/08/17 02:45:14;;;;;;;3.25;3.03;;;;;;;;;;5137010;28;20327;-65
2022/08/17 02:47:42;;;;;;;3.45;3.05;;;;;;;;;;5136935;28;20217;-65
2022/08/17 02:50:12;;;;;;;3.53;3.25;;;;;;;;;;5137458;28;20263;-65
2022/08/17 02:52:41;;;;;;;3.40;3.20;;;;;;;;;;5132487;28;20260;-65
2022/08/17 02:55:10;;;;;;;3.42;3.20;;;;;;;;;;5115903;28;20263;-65
2022/08/17 02:57:37;;;;;;;3.17;2.85;;;;;;;;;;5116438;28;20301;-65
2022/08/17 03:00:06;;;;;;;3.55;3.25;;;;;;;;;;5116195;28;20223;-65
2022/08/17 03:02:37;;;;;;;3.33;3.03;;;;;;;;;;5116210;28;20290;-66
2022/08/17 03:05:05;;;;;;;3.00;2.80;;;;;;;;;;5116614;28;20555;-66
2022/08/17 03:07:34;;;;;;;3.30;3.10;;;;;;;;;;5115651;28;20195;-65
2022/08/17 03:10:02;;;;;;;3.40;3.20;;;;;;;;;;5116190;28;20203;-65
2022/08/17 03:12:29;;;;;;;3.30;3.10;;;;;;;;;;5115910;28;20278;-65
2022/08/17 03:14:57;;;;;;;3.42;3.13;;;;;;;;;;5116205;28;20209;-65
2022/08/17 03:17:24;;;;;;;3.45;3.17;;;;;;;;;;5130698;28;20472;-65
2022/08/17 03:19:52;;;;;;;3.10;2.90;;;;;;;;;;5136657;28;20213;-65
2022/08/17 03:22:19;;;;;;;5.20;3.30;;;;;;;;;;5136608;28;20305;-65
2022/08/17 03:24:48;;;;;;;3.35;3.08;;;;;;;;;;5136748;28;20265;-65
2022/08/17 03:27:15;;;;;;;3.60;3.40;;;;;;;;;;5136587;28;20206;-65
2022/08/17 03:29:42;;;;;;;3.55;3.28;;;;;;;;;;5094975;28;1177333;-66
2022/08/17 03:32:13;;;;;;;3.30;3.10;;;;;;;;;;5138848;27;20262;-66
2022/08/17 03:34:41;;;;;;;3.22;2.92;;;;;;;;;;5142239;27;20202;-66
2022/08/17 03:37:09;;;;;;;3.70;3.40;;;;;;;;;;5141862;27;20201;-66
2022/08/17 03:39:36;;;;;;;3.40;3.20;;;;;;;;;;5141902;27;20733;-66
2022/08/17 03:42:07;;;;;;;3.42;3.22;;;;;;;;;;5130274;27;20250;-66
2022/08/17 03:44:35;;;;;;;3.47;3.22;;;;;;;;;;5121082;28;20214;-66
2022/08/17 03:58:03;;;;;;;3.60;3.30;;;;;;;;;;5120619;28;20594;-66
2022/08/17 04:00:30;;;;;;;3.35;3.15;;;;;;;;;;5121430;28;20238;-66
2022/08/17 04:02:58;;;;;;;3.58;3.28;;;;;;;;;;5120915;28;20211;-66
2022/08/17 04:05:25;;;;;;;3.20;3.00;;;;;;;;;;5120680;28;20268;-66
2022/08/17 04:07:53;;;;;;;3.55;3.35;;;;;;;;;;5121387;27;20776;-65
2022/08/17 04:10:20;;;;;;;3.45;3.15;;;;;;;;;;5141464;27;20594;-65
2022/08/17 04:12:48;;;;;;;3.17;2.97;;;;;;;;;;5141465;27;20203;-65
2022/08/17 04:15:18;;;;;;;3.63;3.42;;;;;;;;;;5141062;27;20202;-65
2022/08/17 04:17:46;;;;;;;3.65;3.40;;;;;;;;;;5141288;27;20214;-65
2022/08/17 04:20:15;;;;;;;3.35;3.15;;;;;;;;;;5140638;27;20914;-65
2022/08/17 04:22:56;;;;;;;3.53;3.33;;;;;;;;;;5141425;27;20481;-65
2022/08/17 04:25:23;;;;;;;3.30;3.10;;;;;;;;;;5141334;27;20213;-65
2022/08/17 04:27:51;;;;;;;3.50;3.30;;;;;;;;;;5139908;27;20209;-65
2022/08/17 04:30:19;;;;;;;3.38;3.17;;;;;;;;;;5140512;27;20237;-65
2022/08/17 04:32:57;;;;;;;3.20;3.00;;;;;;;;;;5140518;27;20202;-66
2022/08/17 04:35:25;;;;;;;3.22;3.03;;;;;;;;;;5138196;27;20229;-66
2022/08/17 04:37:53;;;;;;;3.10;2.90;;;;;;;;;;5119866;28;20272;-66
2022/08/17 04:43:08;;;;;;;3.38;3.17;;;;;;;;;;5119372;28;20319;-66
2022/08/17 04:45:40;;;;;;;3.35;3.15;;;;;;;;;;5119149;28;20301;-66
2022/08/17 04:48:08;;;;;;;3.60;3.40;;;;;;;;;;5118928;28;20203;-66
2022/08/17 04:50:35;;;;;;;3.80;3.50;;;;;;;;;;5118626;28;20673;-66
2022/08/17 04:53:02;;;;;;;3.38;3.10;;;;;;;;;;5118563;28;20264;-66
2022/08/17 04:55:30;;;;;;;3.40;3.20;;;;;;;;;;5118556;28;20210;-66
2022/08/17 04:57:57;;;;;;;3.30;3.10;;;;;;;;;;5119076;28;20571;-66
2022/08/17 05:00:25;;;;;;;3.30;3.10;;;;;;;;;;5118573;28;20211;-66
2022/08/17 05:02:54;;;;;;;3.33;3.13;;;;;;;;;;5124605;27;20228;-65
2022/08/17 05:05:22;;;;;;;3.28;3.08;;;;;;;;;;5139344;27;20275;-66
2022/08/17 05:07:53;;;;;;;3.55;3.25;;;;;;;;;;5139384;27;20646;-66
2022/08/17 05:10:20;;;;;;;3.47;3.22;;;;;;;;;;5139536;27;20202;-66
2022/08/17 05:12:48;;;;;;;3.40;3.20;;;;;;;;;;5139758;27;20590;-66
2022/08/17 05:15:16;;;;;;;3.75;3.45;;;;;;;;;;5139027;27;20202;-66
2022/08/17 05:17:45;;;;;;;3.20;3.00;;;;;;;;;;5138725;27;20298;-66
2022/08/17 05:20:14;;;;;;;3.20;3.00;;;;;;;;;;5139407;27;20202;-66
2022/08/17 05:22:49;;;;;;;3.38;3.17;;;;;;;;;;5139190;27;20492;-65
2022/08/17 05:25:19;;;;;;;3.60;3.40;;;;;;;;;;5139177;27;20277;-65
2022/08/17 05:27:46;;;;;;;3.15;2.95;;;;;;;;;;5139105;27;20194;-65
2022/08/17 05:30:14;;;;;;;3.40;3.20;;;;;;;;;;5132121;27;20230;-65
2022/08/17 05:32:50;;;;;;;3.55;3.35;;;;;;;;;;5117918;28;20716;-65
2022/08/17 05:35:19;;;;;;;3.25;3.05;;;;;;;;;;5117999;28;20198;-65
2022/08/17 05:37:47;;;;;;;3.60;3.35;;;;;;;;;;5117318;28;20235;-65
2022/08/17 05:40:14;;;;;;;3.45;3.25;;;;;;;;;;5118007;28;20251;-65
2022/08/17 05:42:42;;;;;;;3.35;3.15;;;;;;;;;;5118312;28;20234;-65
2022/08/17 05:45:10;;;;;;;3.50;3.30;;;;;;;;;;5117515;28;20214;-65
2022/08/17 05:47:38;;;;;;;3.13;2.92;;;;;;;;;;5118076;28;20299;-65
2022/08/17 05:50:06;;;;;;;3.92;3.30;;;;;;;;;;5117430;28;20203;-65
2022/08/17 05:52:39;;;;;;;3.25;3.05;;;;;;;;;;5117161;28;20199;-65
2022/08/17 05:55:13;;;;;;;3.42;3.22;;;;;;;;;;5116625;28;20206;-65
2022/08/17 05:57:45;;;;;;;3.50;3.30;;;;;;;;;;5117419;27;20190;-66
2022/08/17 06:00:16;;;;;;;3.45;3.25;;;;;;;;;;5116949;28;20206;-65
2022/08/17 06:02:58;;;;;;;3.35;3.15;;;;;;;;;;5116943;28;20238;-65
2022/08/17 06:05:34;;;;;;;3.38;3.17;;;;;;;;;;5116602;28;20207;-65
2022/08/17 06:08:05;;;;;;;3.15;2.95;;;;;;;;;;5116758;28;20264;-65
2022/08/17 06:10:36;;;;;;;3.47;3.17;;;;;;;;;;5116401;28;20689;-65
2022/08/17 06:13:10;;;;;;;3.42;3.20;;;;;;;;;;5116459;28;20195;-65
2022/08/17 06:15:42;;;;;;;3.80;3.50;;;;;;;;;;5116621;28;20203;-65
2022/08/17 06:18:11;;;;;;;3.40;3.20;;;;;;;;;;5117102;28;20203;-66
2022/08/17 06:20:46;;;;;;;3.40;3.20;;;;;;;;;;5116903;28;20199;-65
2022/08/17 06:23:27;;;;;;;3.17;2.97;;;;;;;;;;5116623;28;20205;-66
2022/08/17 06:25:58;;;;;;;3.40;3.20;;;;;;;;;;5133589;27;20593;-65
2022/08/17 06:28:27;;;;;;;3.33;3.13;;;;;;;;;;5136316;27;20210;-65
2022/08/17 06:30:56;;;;;;;3.20;3.00;;;;;;;;;;5136713;27;20259;-65
2022/08/17 06:33:26;;;;;;;3.90;3.70;;;;;;;;;;5136605;27;20206;-65
2022/08/17 06:36:01;;;;;;;3.30;3.10;;;;;;;;;;5136525;27;20712;-65
2022/08/17 06:38:34;;;;;;;3.55;3.25;;;;;;;;;;5136471;27;20201;-65
2022/08/17 06:41:10;;;;;;;3.88;3.55;;;;;;;;;;5136559;27;20209;-65
2022/08/17 06:43:55;;;;;;;3.63;3.33;;;;;;;;;;5136508;27;20610;-65
2022/08/17 06:46:26;;;;;;;3.70;3.40;;;;;;;;;;5136212;27;20622;-65
2022/08/17 06:49:01;;;;;;;3.60;3.40;;;;;;;;;;5124868;27;20195;-65
2022/08/17 06:51:31;;;;;;;3.40;3.20;;;;;;;;;;5115267;28;20723;-65
2022/08/17 06:54:04;;;;;;;3.47;3.28;;;;;;;;;;5115564;28;20242;-65
2022/08/17 06:56:35;;;;;;;3.70;3.40;;;;;;;;;;5115501;28;20285;-65
2022/08/17 06:59:06;;;;;;;3.30;3.10;;;;;;;;;;5114976;28;20531;-65
2022/08/17 07:01:35;;;;;;;3.28;3.08;;;;;;;;;;5115274;28;20222;-65
2022/08/17 07:04:05;;;;;;;3.40;3.20;;;;;;;;;;5114790;28;20203;-66
2022/08/17 07:06:34;;;;;;;3.38;3.17;;;;;;;;;;5115661;28;20491;-66
2022/08/17 07:09:05;;;;;;;3.20;3.00;;;;;;;;;;5115876;28;20214;-66
2022/08/17 07:11:38;;;;;;;3.30;3.10;;;;;;;;;;5115470;28;20563;-66
2022/08/17 07:14:12;;;;;;;3.40;3.20;;;;;;;;;;5115083;28;20203;-66
2022/08/17 07:16:42;;;;;;;3.20;3.00;;;;;;;;;;5131819;27;20297;-65
2022/08/17 07:19:11;;;;;;;3.22;3.03;;;;;;;;;;5132421;28;20317;-65
2022/08/17 07:21:44;;;;;;;3.20;3.00;;;;;;;;;;5115069;28;20215;-66
2022/08/17 07:24:24;;;;;;;3.45;3.25;;;;;;;;;;5114577;28;20245;-66
2022/08/17 07:27:03;;;;;;;3.58;3.38;;;;;;;;;;5114721;28;20207;-66
2022/08/17 07:29:31;;;;;;;3.40;3.20;;;;;;;;;;5114806;28;20542;-66
2022/08/17 07:31:59;;;;;;;3.40;3.10;;;;;;;;;;5115444;28;20252;-66
2022/08/17 07:34:27;;;;;;;3.50;3.30;;;;;;;;;;5114898;28;20252;-66
2022/08/17 07:37:02;;;;;;;3.10;2.90;;;;;;;;;;5114888;28;20195;-66
2022/08/17 07:39:30;;;;;;;3.30;3.10;;;;;;;;;;5114789;28;20317;-66
2022/08/17 07:42:02;;;;;;;3.00;2.80;;;;;;;;;;5114882;28;20517;-66
2022/08/17 07:44:29;;;;;;;3.40;3.20;;;;;;;;;;5114545;28;20586;-66
2022/08/17 07:49:45;;;;;;;3.10;2.90;;;;;;;;;;5114550;28;20194;-66
2022/08/17 07:52:26;;;;;;;3.40;3.20;;;;;;;;;;5114167;28;20357;-66
2022/08/17 07:54:55;;;;;;;3.30;3.10;;;;;;;;;;5114701;28;20207;-66
2022/08/17 07:57:34;;;;;;;3.20;3.00;;;;;;;;;;5113454;28;20737;-66
2022/08/17 08:00:08;;;;;;;3.10;2.90;;;;;;;;;;5113103;28;20263;-66
2022/08/17 08:02:37;;;;;;;3.20;3.00;;;;;;;;;;5113635;28;20328;-67
2022/08/17 08:05:08;;;;;;;2.78;2.67;;;;;;;;;;5113052;28;20598;-66
2022/08/17 08:07:38;;;;;;;3.00;2.80;;;;;;;;;;5114252;28;20542;-66
2022/08/17 08:10:10;;;;;;;3.20;3.00;;;;;;;;;;5122014;28;20243;-66
2022/08/17 08:12:39;;;;;;;3.08;2.88;;;;;;;;;;5135283;28;20293;-66
2022/08/17 08:15:16;;;;;;;3.05;2.85;;;;;;;;;;5135073;28;20453;-66
2022/08/17 08:17:48;;;;;;;3.20;3.00;;;;;;;;;;5135772;27;20222;-66
2022/08/17 08:20:15;;;;;;;2.75;2.55;;;;;;;;;;5139399;27;20600;-66
2022/08/17 08:22:46;;;;;;;2.90;2.80;;;;;;;;;;5139058;27;20230;-66
2022/08/17 08:25:27;;;;;;;2.92;2.72;;;;;;;;;;5138117;27;20859;-66
2022/08/17 08:28:04;;;;;;;3.25;3.05;;;;;;;;;;5138456;27;20731;-66
2022/08/17 08:30:33;;;;;;;3.10;2.90;;;;;;;;;;5137695;27;20337;-66
2022/08/17 08:33:15;;;;;;;2.90;2.70;;;;;;;;;;5138390;27;20585;-66
2022/08/17 08:35:47;;;;;;;2.78;2.67;;;;;;;;;;5138553;27;20229;-66
2022/08/17 08:38:18;;;;;;;2.80;2.60;;;;;;;;;;5118356;27;20267;-66
2022/08/17 08:40:53;;;;;;;3.00;2.70;;;;;;;;;;5117628;28;20248;-66
2022/08/17 08:43:23;;;;;;;2.78;2.60;;;;;;;;;;5117437;28;20226;-66
2022/08/17 08:45:56;;;;;;;2.78;2.67;;;;;;;;;;5116990;28;20659;-66
2022/08/17 08:48:32;;;;;;;3.10;2.90;;;;;;;;;;5117444;28;20234;-66
2022/08/17 08:51:02;;;;;;;2.83;2.63;;;;;;;;;;5117417;28;20332;-66
2022/08/17 08:53:33;;;;;;;2.90;2.70;;;;;;;;;;5116913;28;20195;-66
2022/08/17 08:56:05;;;;;;;3.08;2.88;;;;;;;;;;5117674;28;20579;-66
2022/08/17 08:58:35;;;;;;;3.00;2.80;;;;;;;;;;5117440;28;20263;-66
2022/08/17 09:01:03;;;;;;;3.22;3.03;;;;;;;;;;5117424;28;20279;-66
2022/08/17 09:03:48;;;;;;;2.75;2.55;;;;;;;;;;5116761;28;20223;-66
2022/08/17 09:06:21;;;;;;;3.15;2.85;;;;;;;;;;5121990;27;20603;-66
2022/08/17 09:08:54;;;;;;;2.80;2.60;;;;;;;;;;5137647;27;20730;-66
2022/08/17 09:11:34;;;;;;;3.28;3.08;;;;;;;;;;5138200;27;20208;-66
2022/08/17 09:14:05;;;;;;;3.03;2.78;;;;;;;;;;5138348;27;20508;-66
2022/08/17 09:16:35;;;;;;;3.30;3.00;;;;;;;;;;5137282;27;20522;-66
2022/08/17 09:19:05;;;;;;;3.05;2.85;;;;;;;;;;5136847;27;20327;-66
2022/08/17 09:21:38;;;;;;;2.90;2.70;;;;;;;;;;5135986;27;20207;-66
2022/08/17 09:24:10;;;;;;;3.03;2.83;;;;;;;;;;5135412;27;20222;-66
2022/08/17 09:26:40;;;;;;;3.10;2.90;;;;;;;;;;5136846;27;20644;-66
2022/08/17 09:29:09;;;;;;;3.00;2.80;;;;;;;;;;5135138;27;20238;-66
2022/08/17 09:31:40;;;;;;;3.67;2.90;;;;;;;;;;5127665;27;20199;-66
2022/08/17 09:34:10;;;;;;;3.10;2.90;;;;;;;;;;5115322;28;20192;-66
2022/08/17 09:36:41;;;;;;;3.20;3.00;;;;;;;;;;5115568;28;20194;-66
2022/08/17 09:39:12;;;;;;;3.00;2.80;;;;;;;;;;5116337;28;20203;-66
2022/08/17 09:41:43;;;;;;;3.10;2.90;;;;;;;;;;5114993;28;20796;-65
2022/08/17 09:44:16;;;;;;;3.38;3.15;;;;;;;;;;5114760;28;20472;-66
2022/08/17 09:46:48;;;;;;;2.85;2.65;;;;;;;;;;5115337;28;20575;-66
2022/08/17 09:49:18;;;;;;;3.35;3.10;;;;;;;;;;5115393;28;20267;-66
2022/08/17 09:51:47;;;;;;;2.72;2.53;;;;;;;;;;5115197;28;20301;-65
2022/08/17 09:54:25;;;;;;;3.10;2.90;;;;;;;;;;5115608;28;20477;-66
2022/08/17 09:56:58;;;;;;;3.05;2.85;;;;;;;;;;5115020;28;20203;-66
2022/08/17 09:59:35;;;;;;;3.20;3.00;;;;;;;;;;5124218;27;20617;-66
2022/08/17 10:02:08;;;;;;;3.20;3.00;;;;;;;;;;5134972;27;20304;-66
2022/08/17 10:04:41;;;;;;;2.97;2.78;;;;;;;;;;5134755;27;20260;-66
2022/08/17 10:07:12;;;;;;;3.13;2.88;;;;;;;;;;5134408;27;20714;-66
2022/08/17 10:09:45;;;;;;;3.33;3.05;;;;;;;;;;5134460;27;20202;-67
2022/08/17 10:12:20;;;;;;;3.00;2.80;;;;;;;;;;5134833;27;20255;-67
2022/08/17 10:15:00;;;;;;;2.80;2.60;;;;;;;;;;5117319;27;20191;-67
2022/08/17 10:17:30;;;;;;;5.82;3.00;;;;;;;;;;5114881;28;20595;-67
2022/08/17 10:20:01;;;;;;;3.20;2.90;;;;;;;;;;5114850;28;20210;-67
2022/08/17 10:28:08;;;;;;;3.20;2.90;;;;;;;;;;5134251;27;20193;-67
2022/08/17 10:30:38;;;;;;;4.70;2.90;;;;;;;;;;5134508;27;20449;-67
2022/08/17 10:33:07;;;;;;;3.10;2.90;;;;;;;;;;5134864;27;20262;-67
2022/08/17 10:35:38;;;;;;;3.20;3.00;;;;;;;;;;5135655;27;20202;-67
2022/08/17 10:38:24;;;;;;;3.17;2.97;;;;;;;;;;5135601;27;20224;-66
2022/08/17 10:40:54;;;;;;;3.30;3.10;;;;;;;;;;5131755;27;20205;-66
2022/08/17 10:43:31;;;;;;;3.47;3.17;;;;;;;;;;5114910;27;20673;-66
2022/08/17 10:46:03;;;;;;;3.20;3.00;;;;;;;;;;5114868;28;20689;-66
2022/08/17 10:48:33;;;;;;;3.22;3.03;;;;;;;;;;5113494;28;20211;-66
2022/08/17 10:51:02;;;;;;;3.83;3.03;;;;;;;;;;5114155;28;20213;-66
2022/08/17 10:53:48;;;;;;;3.10;2.90;;;;;;;;;;5114619;28;20206;-66
2022/08/17 10:56:20;;;;;;;3.28;3.00;;;;;;;;;;5132879;27;20244;-66
2022/08/17 10:58:52;;;;;;;3.10;2.90;;;;;;;;;;5134780;27;20202;-66
2022/08/17 11:01:19;;;;;;;3.00;2.80;;;;;;;;;;5134815;27;20198;-66
2022/08/17 11:03:53;;;;;;;2.95;2.75;;;;;;;;;;5134463;27;20808;-67
2022/08/17 11:06:25;;;;;;;3.20;3.00;;;;;;;;;;5134041;27;20699;-67
2022/08/17 11:09:05;;;;;;;2.80;2.60;;;;;;;;;;5134418;27;20578;-67
2022/08/17 11:11:44;;;;;;;3.45;2.90;;;;;;;;;;5134286;27;20223;-67
2022/08/17 11:14:22;;;;;;;3.20;3.00;;;;;;;;;;5134396;27;20199;-67
2022/08/17 11:17:00;;;;;;;3.10;2.90;;;;;;;;;;5134703;27;20219;-67
2022/08/17 11:19:37;;;;;;;3.00;2.80;;;;;;;;;;5134859;27;20202;-67
2022/08/17 11:22:14;;;;;;;2.78;2.67;;;;;;;;;;5128266;28;20479;-67
2022/08/17 11:24:46;;;;;;;3.28;3.08;;;;;;;;;;5113420;28;20894;-66
2022/08/17 11:27:22;;;;;;;3.10;2.85;;;;;;;;;;5114090;28;20290;-66
2022/08/17 11:29:52;;;;;;;3.10;2.90;;;;;;;;;;5114121;28;20223;-66
2022/08/17 11:32:32;;;;;;;3.00;2.80;;;;;;;;;;5114368;28;20272;-66
2022/08/17 11:35:10;;;;;;;3.35;3.05;;;;;;;;;;5113780;28;20199;-66
2022/08/17 11:37:45;;;;;;;3.05;2.85;;;;;;;;;;5114654;28;20206;-67
2022/08/17 11:40:18;;;;;;;2.88;2.67;;;;;;;;;;5113629;28;20214;-66
2022/08/17 11:42:58;;;;;;;3.50;3.20;;;;;;;;;;5114149;28;20645;-66
2022/08/17 11:45:36;;;;;;;2.90;2.70;;;;;;;;;;5113398;28;20342;-67
2022/08/17 11:53:59;;;;;;;3.00;2.80;;;;;;;;;;5115193;28;20254;-67
2022/08/17 11:56:31;;;;;;;3.05;2.85;;;;;;;;;;5111079;28;20203;-66
2022/08/17 11:59:00;;;;;;;3.25;3.00;;;;;;;;;;5116900;28;20251;-66
2022/08/17 12:01:45;;;;;;;2.80;2.60;;;;;;;;;;5116656;28;20203;-66
2022/08/17 12:04:26;;;;;;;3.10;2.90;;;;;;;;;;5117876;28;20222;-67
2022/08/17 12:06:56;;;;;;;2.60;2.50;;;;;;;;;;5117251;28;20210;-67
2022/08/17 12:09:25;;;;;;;2.88;2.67;;;;;;;;;;5117458;28;20213;-66
2022/08/17 12:11:54;;;;;;;2.88;2.78;;;;;;;;;;5116365;28;20199;-66
2022/08/17 12:14:25;;;;;;;3.17;2.97;;;;;;;;;;5117420;28;20199;-66
2022/08/17 12:17:00;;;;;;;2.78;2.55;;;;;;;;;;5123486;27;20796;-66
2022/08/17 12:19:29;;;;;;;2.63;2.42;;;;;;;;;;5137652;27;20209;-67
2022/08/17 12:21:58;;;;;;;2.78;2.58;;;;;;;;;;5139181;27;20194;-67
2022/08/17 12:24:32;;;;;;;2.80;2.60;;;;;;;;;;5137655;27;20673;-67
2022/08/17 12:27:01;;;;;;;3.40;2.83;;;;;;;;;;5138447;27;20209;-67
2022/08/17 12:29:29;;;;;;;3.00;2.80;;;;;;;;;;5137993;27;20230;-67
2022/08/17 12:31:57;;;;;;;2.70;2.60;;;;;;;;;;5137410;27;20642;-67
2022/08/17 12:34:25;;;;;;;2.80;2.60;;;;;;;;;;5137448;27;20532;-67
2022/08/17 12:36:56;;;;;;;3.15;2.95;;;;;;;;;;5136871;27;20202;-67
2022/08/17 12:39:25;;;;;;;3.00;2.80;;;;;;;;;;5137706;27;20210;-67
2022/08/17 12:41:55;;;;;;;2.70;2.50;;;;;;;;;;5137057;27;20203;-67
2022/08/17 12:44:23;;;;;;;2.60;2.40;;;;;;;;;;5131457;27;20222;-67
2022/08/17 12:46:52;;;;;;;3.03;2.70;;;;;;;;;;5116648;28;20207;-67
2022/08/17 12:49:25;;;;;;;2.63;2.53;;;;;;;;;;5117320;28;20211;-67
2022/08/17 12:51:57;;;;;;;3.00;2.60;;;;;;;;;;5117138;28;20470;-66
2022/08/17 12:54:27;;;;;;;2.67;2.55;;;;;;;;;;5117096;28;20199;-66
2022/08/17 12:56:55;;;;;;;2.65;2.53;;;;;;;;;;5116615;28;20203;-66
2022/08/17 12:59:23;;;;;;;3.03;2.67;;;;;;;;;;5117055;28;20282;-66
2022/08/17 13:01:51;;;;;;;2.70;2.60;;;;;;;;;;5117253;28;20450;-66
2022/08/17 13:04:19;;;;;;;3.15;2.85;;;;;;;;;;5116100;28;20632;-67
2022/08/17 13:06:49;;;;;;;2.80;2.60;;;;;;;;;;5115905;28;20198;-67
2022/08/17 13:09:22;;;;;;;2.92;2.72;;;;;;;;;;5115391;28;20209;-67
2022/08/17 13:11:50;;;;;;;2.55;2.42;;;;;;;;;;5120890;27;20197;-67
2022/08/17 13:14:18;;;;;;;2.75;2.55;;;;;;;;;;5136850;27;20251;-67
2022/08/17 13:16:49;;;;;;;2.72;2.53;;;;;;;;;;5137272;27;20202;-67
2022/08/17 13:19:20;;;;;;;2.80;2.60;;;;;;;;;;5137330;27;20206;-67
2022/08/17 13:21:50;;;;;;;2.80;2.60;;;;;;;;;;5136698;27;20256;-67
2022/08/17 13:24:19;;;;;;;2.78;2.58;;;;;;;;;;5136520;27;20214;-67
2022/08/17 13:26:48;;;;;;;2.55;2.45;;;;;;;;;;5135563;27;20202;-67
2022/08/17 13:29:20;;;;;;;2.53;2.42;;;;;;;;;;5136087;27;20234;-67
2022/08/17 13:31:48;;;;;;;2.65;2.55;;;;;;;;;;5136342;27;20210;-67
2022/08/17 13:34:16;;;;;;;2.75;2.30;;;;;;;;;;5136872;27;20498;-67
2022/08/17 13:36:44;;;;;;;2.70;2.50;;;;;;;;;;5136434;27;20210;-67
2022/08/17 13:39:14;;;;;;;2.65;2.53;;;;;;;;;;5132209;27;20199;-67
2022/08/17 13:41:41;;;;;;;2.90;2.60;;;;;;;;;;5114882;28;20267;-67
2022/08/17 13:44:27;;;;;;;2.50;2.40;;;;;;;;;;5116111;28;20287;-67
2022/08/17 13:46:56;;;;;;;2.90;2.70;;;;;;;;;;5116133;28;20259;-66
2022/08/17 13:49:23;;;;;;;2.70;2.50;;;;;;;;;;5115276;28;20203;-67
2022/08/17 13:51:51;;;;;;;2.72;2.53;;;;;;;;;;5116399;28;20571;-67
2022/08/17 13:54:25;;;;;;;2.92;2.65;;;;;;;;;;5116077;28;20210;-67
2022/08/17 13:56:54;;;;;;;2.50;2.40;;;;;;;;;;5115864;28;20263;-67
2022/08/17 13:59:34;;;;;;;2.70;2.50;;;;;;;;;;5116191;28;20310;-67
2022/08/17 14:02:04;;;;;;;2.42;2.33;;;;;;;;;;5114663;28;20194;-67
2022/08/17 14:04:32;;;;;;;2.42;2.33;;;;;;;;;;5115292;28;20630;-67
2022/08/17 14:07:01;;;;;;;2.78;2.58;;;;;;;;;;5119676;27;20586;-67
2022/08/17 14:09:30;;;;;;;2.58;2.47;;;;;;;;;;5115683;28;20203;-67
2022/08/17 14:11:58;;;;;;;2.80;2.60;;;;;;;;;;5115571;28;20310;-66
2022/08/17 14:14:26;;;;;;;2.63;2.53;;;;;;;;;;5115724;28;20226;-66
2022/08/17 14:16:54;;;;;;;2.80;2.60;;;;;;;;;;5114706;28;20199;-66
2022/08/17 14:19:22;;;;;;;2.90;2.70;;;;;;;;;;5114758;28;20211;-66
2022/08/17 14:21:50;;;;;;;2.80;2.60;;;;;;;;;;5114951;28;20618;-67
2022/08/17 14:24:21;;;;;;;2.70;2.55;;;;;;;;;;5114553;28;20280;-67
2022/08/17 14:26:51;;;;;;;2.40;2.30;;;;;;;;;;5114783;28;20203;-67
2022/08/17 14:29:18;;;;;;;2.80;2.60;;;;;;;;;;5114782;28;20237;-67
2022/08/17 14:31:46;;;;;;;2.65;2.45;;;;;;;;;;5114744;28;20541;-67
2022/08/17 14:34:13;;;;;;;2.60;2.40;;;;;;;;;;5118071;27;20716;-67
2022/08/17 14:36:42;;;;;;;2.50;2.40;;;;;;;;;;5134978;27;20626;-67
2022/08/17 14:39:09;;;;;;;2.60;2.50;;;;;;;;;;5135457;27;20255;-67
2022/08/17 14:41:37;;;;;;;2.78;2.58;;;;;;;;;;5134230;27;20740;-67
2022/08/17 14:44:04;;;;;;;2.55;2.40;;;;;;;;;;5134667;27;20622;-67
2022/08/17 14:46:32;;;;;;;2.67;2.58;;;;;;;;;;5134907;27;20217;-67
2022/08/17 14:49:01;;;;;;;2.75;2.55;;;;;;;;;;5134779;27;20206;-67
2022/08/17 14:51:29;;;;;;;3.08;2.88;;;;;;;;;;5133770;27;20772;-68
2022/08/17 14:53:58;;;;;;;2.90;2.70;;;;;;;;;;5134288;27;20515;-67
2022/08/17 14:56:26;;;;;;;2.83;2.63;;;;;;;;;;5134644;27;20217;-67
2022/08/17 14:58:54;;;;;;;3.03;2.78;;;;;;;;;;5134031;27;20779;-67
2022/08/17 15:01:23;;;;;;;2.95;2.75;;;;;;;;;;5128326;27;20194;-67
2022/08/17 15:03:52;;;;;;;2.90;2.70;;;;;;;;;;5113544;28;20222;-67
2022/08/17 15:06:19;;;;;;;3.28;2.85;;;;;;;;;;5113186;28;20199;-67
2022/08/17 15:08:47;;;;;;;2.78;2.58;;;;;;;;;;5114853;28;20199;-67
2022/08/17 15:11:16;;;;;;;3.17;2.97;;;;;;;;;;5114357;28;20199;-67
2022/08/17 15:13:44;;;;;;;2.90;2.70;;;;;;;;;;5113919;28;20206;-66
2022/08/17 15:16:13;;;;;;;2.97;2.78;;;;;;;;;;5114316;28;20241;-67
2022/08/17 15:18:40;;;;;;;3.00;2.70;;;;;;;;;;5113976;28;20544;-67
2022/08/17 15:21:09;;;;;;;2.63;2.53;;;;;;;;;;5113604;28;20640;-67
2022/08/17 15:23:38;;;;;;;2.75;2.55;;;;;;;;;;5113716;28;20205;-67
2022/08/17 15:26:05;;;;;;;2.92;2.72;;;;;;;;;;5114130;28;20214;-67
2022/08/17 15:28:34;;;;;;;2.85;2.65;;;;;;;;;;5119111;27;20223;-67
2022/08/17 15:31:01;;;;;;;3.03;2.83;;;;;;;;;;5118494;28;20203;-66